sensor_id;sensor_type;location;lat;lon;timestamp;pressure;altitude;pressure_sealevel;temperature;humidity
54042;BME280;41156;51.508;5.406;2023-02-12T00:00:56;103712.00;;;7.25;100.00
54042;BME280;41156;51.508;5.406;2023-02-12T00:03:56;103719.34;;;7.23;100.00
54042;BME280;41156;51.508;5.406;2023-02-12T00:06:57;103718.59;;;7.21;100.00
54042;BME280;41156;51.508;5.406;2023-02-12T00:09:57;103716.78;;;7.21;100.00
54042;BME280;41156;51.508;5.406;2023-02-12T00:12:57;103715.91;;;7.21;100.00
54042;BME280;41156;51.508;5.406;2023-02-12T00:15:57;103714.34;;;7.18;100.00
54042;BME280;41156;51.508;5.406;2023-02-12T00:18:58;103718.88;;;7.18;100.00
54042;BME280;41156;51.508;5.406;2023-02-12T00:21:58;103720.81;;;7.16;100.00
54042;BME280;41156;51.508;5.406;2023-02-12T00:24:59;103719.09;;;7.15;100.00
54042;BME280;41156;51.508;5.406;2023-02-12T00:27:59;103720.06;;;7.14;100.00
54042;BME280;41156;51.508;5.406;2023-02-12T00:31:05;103721.91;;;7.13;100.00
54042;BME280;41156;51.508;5.406;2023-02-12T00:34:05;103713.00;;;7.13;100.00
54042;BME280;41156;51.508;5.406;2023-02-12T00:37:06;103724.84;;;7.10;100.00
54042;BME280;41156;51.508;5.406;2023-02-12T00:40:07;103733.75;;;7.11;100.00
54042;BME280;41156;51.508;5.406;2023-02-12T00:43:07;103735.59;;;7.10;100.00
54042;BME280;41156;51.508;5.406;2023-02-12T00:46:07;103733.75;;;7.11;100.00
54042;BME280;41156;51.508;5.406;2023-02-12T00:49:08;103721.31;;;7.10;100.00
54042;BME280;41156;51.508;5.406;2023-02-12T00:52:08;103715.94;;;7.10;100.00
54042;BME280;41156;51.508;5.406;2023-02-12T00:55:08;103715.81;;;7.11;100.00
54042;BME280;41156;51.508;5.406;2023-02-12T00:58:09;103718.63;;;7.10;100.00
54042;BME280;41156;51.508;5.406;2023-02-12T01:01:10;103727.53;;;7.10;100.00
54042;BME280;41156;51.508;5.406;2023-02-12T01:04:10;103711.53;;;7.09;100.00
54042;BME280;41156;51.508;5.406;2023-02-12T01:07:12;103724.97;;;7.09;100.00
54042;BME280;41156;51.508;5.406;2023-02-12T01:10:12;103715.31;;;7.06;100.00
54042;BME280;41156;51.508;5.406;2023-02-12T01:13:13;103721.66;;;7.05;100.00
54042;BME280;41156;51.508;5.406;2023-02-12T01:16:15;103723.50;;;7.04;100.00
54042;BME280;41156;51.508;5.406;2023-02-12T01:19:15;103715.44;;;7.04;100.00
54042;BME280;41156;51.508;5.406;2023-02-12T01:22:16;103714.56;;;7.04;100.00
54042;BME280;41156;51.508;5.406;2023-02-12T01:25:17;103712.00;;;7.02;100.00
54042;BME280;41156;51.508;5.406;2023-02-12T01:28:17;103724.59;;;7.02;100.00
54042;BME280;41156;51.508;5.406;2023-02-12T01:31:21;103724.72;;;7.00;100.00
54042;BME280;41156;51.508;5.406;2023-02-12T01:34:21;103714.91;;;6.99;100.00
54042;BME280;41156;51.508;5.406;2023-02-12T01:37:21;103712.22;;;6.99;100.00
54042;BME280;41156;51.508;5.406;2023-02-12T01:40:22;103713.22;;;6.98;100.00
54042;BME280;41156;51.508;5.406;2023-02-12T01:43:22;103718.72;;;6.97;100.00
54042;BME280;41156;51.508;5.406;2023-02-12T01:46:22;103721.28;;;6.98;100.00
54042;BME280;41156;51.508;5.406;2023-02-12T01:49:41;103716.88;;;6.97;100.00
54042;BME280;41156;51.508;5.406;2023-02-12T01:52:47;103706.25;;;6.96;100.00
54042;BME280;41156;51.508;5.406;2023-02-12T01:55:54;103708.09;;;6.95;100.00
54042;BME280;41156;51.508;5.406;2023-02-12T01:58:56;103700.97;;;6.94;100.00
54042;BME280;41156;51.508;5.406;2023-02-12T02:01:56;103707.34;;;6.93;100.00
54042;BME280;41156;51.508;5.406;2023-02-12T02:05:00;103704.66;;;6.93;100.00
54042;BME280;41156;51.508;5.406;2023-02-12T02:08:01;103702.94;;;6.92;100.00
54042;BME280;41156;51.508;5.406;2023-02-12T02:11:02;103698.56;;;6.91;100.00
54042;BME280;41156;51.508;5.406;2023-02-12T02:14:22;103700.50;;;6.89;100.00
54042;BME280;41156;51.508;5.406;2023-02-12T02:17:54;103706.88;;;6.88;100.00
54042;BME280;41156;51.508;5.406;2023-02-12T02:21:18;103705.88;;;6.89;100.00
54042;BME280;41156;51.508;5.406;2023-02-12T02:31:17;103707.09;;;6.85;100.00
54042;BME280;41156;51.508;5.406;2023-02-12T02:34:38;103708.06;;;6.84;100.00
54042;BME280;41156;51.508;5.406;2023-02-12T02:41:14;103710.03;;;6.82;100.00
54042;BME280;41156;51.508;5.406;2023-02-12T02:44:22;103706.50;;;6.81;100.00
54042;BME280;41156;51.508;5.406;2023-02-12T02:47:36;103703.81;;;6.81;100.00
54042;BME280;41156;51.508;5.406;2023-02-12T02:50:43;103707.34;;;6.82;100.00
54042;BME280;41156;51.508;5.406;2023-02-12T02:53:57;103710.13;;;6.80;100.00
54042;BME280;41156;51.508;5.406;2023-02-12T02:57:05;103699.38;;;6.80;100.00
54042;BME280;41156;51.508;5.406;2023-02-12T03:03:29;103706.59;;;6.80;100.00
54042;BME280;41156;51.508;5.406;2023-02-12T03:06:42;103703.03;;;6.79;100.00
54042;BME280;41156;51.508;5.406;2023-02-12T03:09:50;103694.13;;;6.79;100.00
54042;BME280;41156;51.508;5.406;2023-02-12T03:12:54;103697.81;;;6.78;100.00
54042;BME280;41156;51.508;5.406;2023-02-12T03:16:00;103700.63;;;6.76;100.00
54042;BME280;41156;51.508;5.406;2023-02-12T03:19:10;103696.22;;;6.75;100.00
54042;BME280;41156;51.508;5.406;2023-02-12T03:22:17;103700.75;;;6.75;100.00
54042;BME280;41156;51.508;5.406;2023-02-12T03:25:28;103697.06;;;6.76;100.00
54042;BME280;41156;51.508;5.406;2023-02-12T03:28:34;103700.75;;;6.75;100.00
54042;BME280;41156;51.508;5.406;2023-02-12T03:31:56;103692.78;;;6.73;100.00
54042;BME280;41156;51.508;5.406;2023-02-12T03:41:36;103693.63;;;6.74;100.00
54042;BME280;41156;51.508;5.406;2023-02-12T03:47:45;103692.91;;;6.72;100.00
54042;BME280;41156;51.508;5.406;2023-02-12T03:50:53;103691.19;;;6.71;100.00
54042;BME280;41156;51.508;5.406;2023-02-12T03:53:56;103692.91;;;6.72;100.00
54042;BME280;41156;51.508;5.406;2023-02-12T03:57:05;103686.53;;;6.73;100.00
54042;BME280;41156;51.508;5.406;2023-02-12T04:00:18;103692.69;;;6.75;100.00
54042;BME280;41156;51.508;5.406;2023-02-12T04:03:19;103694.47;;;6.74;100.00
54042;BME280;41156;51.508;5.406;2023-02-12T04:06:24;103692.78;;;6.73;100.00
54042;BME280;41156;51.508;5.406;2023-02-12T04:09:26;103703.53;;;6.73;100.00
54042;BME280;41156;51.508;5.406;2023-02-12T04:12:32;103690.94;;;6.74;100.00
54042;BME280;41156;51.508;5.406;2023-02-12T04:18:42;103699.97;;;6.73;100.00
54042;BME280;41156;51.508;5.406;2023-02-12T04:22:03;103708.03;;;6.73;100.00
54042;BME280;41156;51.508;5.406;2023-02-12T04:28:23;103706.56;;;6.69;100.00
54042;BME280;41156;51.508;5.406;2023-02-12T04:31:39;103710.09;;;6.69;100.00
54042;BME280;41156;51.508;5.406;2023-02-12T04:34:50;103717.22;;;6.70;100.00
54042;BME280;41156;51.508;5.406;2023-02-12T04:38:03;103720.75;;;6.71;100.00
54042;BME280;41156;51.508;5.406;2023-02-12T04:41:08;103716.88;;;6.75;100.00
54042;BME280;41156;51.508;5.406;2023-02-12T04:44:13;103718.31;;;6.79;100.00
54042;BME280;41156;51.508;5.406;2023-02-12T04:47:15;103728.94;;;6.80;100.00
54042;BME280;41156;51.508;5.406;2023-02-12T04:50:15;103728.94;;;6.80;100.00
54042;BME280;41156;51.508;5.406;2023-02-12T04:53:16;103728.09;;;6.80;100.00
54042;BME280;41156;51.508;5.406;2023-02-12T04:56:16;103722.00;;;6.78;100.00
54042;BME280;41156;51.508;5.406;2023-02-12T04:59:17;103722.97;;;6.77;100.00
54042;BME280;41156;51.508;5.406;2023-02-12T05:02:17;103723.09;;;6.75;100.00
54042;BME280;41156;51.508;5.406;2023-02-12T05:05:17;103717.72;;;6.75;100.00
54042;BME280;41156;51.508;5.406;2023-02-12T05:08:18;103723.94;;;6.76;100.00
54042;BME280;41156;51.508;5.406;2023-02-12T05:11:18;103722.34;;;6.73;100.00
54042;BME280;41156;51.508;5.406;2023-02-12T05:14:19;103721.34;;;6.74;100.00
54042;BME280;41156;51.508;5.406;2023-02-12T05:17:23;103719.66;;;6.73;100.00
54042;BME280;41156;51.508;5.406;2023-02-12T05:20:23;103734.91;;;6.73;100.00
54042;BME280;41156;51.508;5.406;2023-02-12T05:23:31;103735.91;;;6.72;100.00
54042;BME280;41156;51.508;5.406;2023-02-12T05:26:32;103731.50;;;6.71;100.00
54042;BME280;41156;51.508;5.406;2023-02-12T05:29:32;103735.19;;;6.70;100.00
54042;BME280;41156;51.508;5.406;2023-02-12T05:32:33;103736.03;;;6.70;100.00
54042;BME280;41156;51.508;5.406;2023-02-12T05:35:34;103736.13;;;6.69;100.00
54042;BME280;41156;51.508;5.406;2023-02-12T05:38:35;103735.19;;;6.70;100.00
54042;BME280;41156;51.508;5.406;2023-02-12T05:41:36;103735.19;;;6.70;100.00
54042;BME280;41156;51.508;5.406;2023-02-12T05:44:36;103734.31;;;6.69;100.00
54042;BME280;41156;51.508;5.406;2023-02-12T05:47:36;103733.44;;;6.69;100.00
54042;BME280;41156;51.508;5.406;2023-02-12T05:50:36;103737.09;;;6.67;100.00
54042;BME280;41156;51.508;5.406;2023-02-12T05:53:38;103733.56;;;6.67;100.00
54042;BME280;41156;51.508;5.406;2023-02-12T05:56:43;103738.09;;;6.66;100.00
54042;BME280;41156;51.508;5.406;2023-02-12T05:59:43;103744.31;;;6.67;100.00
54042;BME280;41156;51.508;5.406;2023-02-12T06:02:44;103734.69;;;6.64;100.00
54042;BME280;41156;51.508;5.406;2023-02-12T06:05:49;103736.38;;;6.65;100.00
54042;BME280;41156;51.508;5.406;2023-02-12T06:08:50;103741.75;;;6.65;100.00
54042;BME280;41156;51.508;5.406;2023-02-12T06:11:50;103732.84;;;6.65;100.00
54042;BME280;41156;51.508;5.406;2023-02-12T06:14:51;103750.66;;;6.66;100.00
54042;BME280;41156;51.508;5.406;2023-02-12T06:17:51;103747.00;;;6.67;100.00
54042;BME280;41156;51.508;5.406;2023-02-12T06:20:51;103753.34;;;6.66;100.00
54042;BME280;41156;51.508;5.406;2023-02-12T06:23:53;103751.53;;;6.66;100.00
54042;BME280;41156;51.508;5.406;2023-02-12T06:26:53;103754.34;;;6.65;100.00
54042;BME280;41156;51.508;5.406;2023-02-12T06:29:54;103751.75;;;6.63;100.00
54042;BME280;41156;51.508;5.406;2023-02-12T06:32:54;103750.91;;;6.63;100.00
54042;BME280;41156;51.508;5.406;2023-02-12T06:35:54;103748.97;;;6.65;100.00
54042;BME280;41156;51.508;5.406;2023-02-12T06:38:54;103753.47;;;6.64;100.00
54042;BME280;41156;51.508;5.406;2023-02-12T06:41:55;103750.91;;;6.63;100.00
54042;BME280;41156;51.508;5.406;2023-02-12T06:44:55;103756.28;;;6.63;100.00
54042;BME280;41156;51.508;5.406;2023-02-12T06:47:55;103749.91;;;6.64;100.00
54042;BME280;41156;51.508;5.406;2023-02-12T06:50:56;103760.78;;;6.62;100.00
54042;BME280;41156;51.508;5.406;2023-02-12T06:53:56;103757.25;;;6.62;100.00
54042;BME280;41156;51.508;5.406;2023-02-12T06:56:57;103753.72;;;6.61;100.00
54042;BME280;41156;51.508;5.406;2023-02-12T06:59:57;103759.94;;;6.62;100.00
54042;BME280;41156;51.508;5.406;2023-02-12T07:02:57;103759.94;;;6.62;100.00
54042;BME280;41156;51.508;5.406;2023-02-12T07:05:57;103768.00;;;6.62;100.00
54042;BME280;41156;51.508;5.406;2023-02-12T07:08:58;103768.84;;;6.62;100.00
54042;BME280;41156;51.508;5.406;2023-02-12T07:11:58;103765.19;;;6.63;100.00
54042;BME280;41156;51.508;5.406;2023-02-12T07:14:58;103773.25;;;6.63;100.00
54042;BME280;41156;51.508;5.406;2023-02-12T07:17:59;103773.25;;;6.63;100.00
54042;BME280;41156;51.508;5.406;2023-02-12T07:20:59;103772.41;;;6.63;100.00
54042;BME280;41156;51.508;5.406;2023-02-12T07:23:59;103784.00;;;6.63;100.00
54042;BME280;41156;51.508;5.406;2023-02-12T07:27:00;103774.97;;;6.64;100.00
54042;BME280;41156;51.508;5.406;2023-02-12T07:30:00;103774.97;;;6.64;100.00
54042;BME280;41156;51.508;5.406;2023-02-12T07:33:00;103777.53;;;6.66;100.00
54042;BME280;41156;51.508;5.406;2023-02-12T07:36:02;103782.78;;;6.67;100.00
54042;BME280;41156;51.508;5.406;2023-02-12T07:39:03;103790.72;;;6.69;100.00
54042;BME280;41156;51.508;5.406;2023-02-12T07:42:04;103792.47;;;6.70;100.00
54042;BME280;41156;51.508;5.406;2023-02-12T07:45:04;103791.34;;;6.73;100.00
54042;BME280;41156;51.508;5.406;2023-02-12T07:48:05;103797.50;;;6.75;100.00
54042;BME280;41156;51.508;5.406;2023-02-12T07:51:07;103797.38;;;6.76;100.00
54042;BME280;41156;51.508;5.406;2023-02-12T07:54:09;103794.56;;;6.78;100.00
54042;BME280;41156;51.508;5.406;2023-02-12T07:57:10;103793.34;;;6.82;100.00
54042;BME280;41156;51.508;5.406;2023-02-12T08:00:10;103797.66;;;6.84;100.00
54042;BME280;41156;51.508;5.406;2023-02-12T08:03:11;103794.69;;;6.88;100.00
54042;BME280;41156;51.508;5.406;2023-02-12T08:06:17;103800.72;;;6.91;100.00
54042;BME280;41156;51.508;5.406;2023-02-12T08:09:20;103803.16;;;6.94;100.00
54042;BME280;41156;51.508;5.406;2023-02-12T08:12:21;103798.25;;;6.99;100.00
54042;BME280;41156;51.508;5.406;2023-02-12T08:15:22;103804.28;;;7.03;100.00
54042;BME280;41156;51.508;5.406;2023-02-12T08:18:23;103794.25;;;7.05;100.00
54042;BME280;41156;51.508;5.406;2023-02-12T08:21:25;103802.94;;;7.09;100.00
54042;BME280;41156;51.508;5.406;2023-02-12T08:24:25;103809.06;;;7.11;100.00
54042;BME280;41156;51.508;5.406;2023-02-12T08:27:25;103802.59;;;7.13;100.00
54042;BME280;41156;51.508;5.406;2023-02-12T08:30:26;103802.34;;;7.16;100.00
54042;BME280;41156;51.508;5.406;2023-02-12T08:33:26;103819.97;;;7.20;100.00
54042;BME280;41156;51.508;5.406;2023-02-12T08:36:38;103814.22;;;7.25;100.00
54042;BME280;41156;51.508;5.406;2023-02-12T08:39:38;103817.53;;;7.29;100.00
54042;BME280;41156;51.508;5.406;2023-02-12T08:42:38;103812.75;;;7.32;100.00
54042;BME280;41156;51.508;5.406;2023-02-12T08:45:39;103823.16;;;7.37;100.00
54042;BME280;41156;51.508;5.406;2023-02-12T08:48:40;103814.84;;;7.40;100.00
54042;BME280;41156;51.508;5.406;2023-02-12T08:51:47;103812.66;;;7.45;100.00
54042;BME280;41156;51.508;5.406;2023-02-12T08:54:47;103819.66;;;7.48;100.00
54042;BME280;41156;51.508;5.406;2023-02-12T08:57:48;103817.31;;;7.54;100.00
54042;BME280;41156;51.508;5.406;2023-02-12T09:00:48;103826.72;;;7.60;100.00
54042;BME280;41156;51.508;5.406;2023-02-12T09:03:49;103829.31;;;7.62;100.00
54042;BME280;41156;51.508;5.406;2023-02-12T09:06:50;103825.50;;;7.64;100.00
54042;BME280;41156;51.508;5.406;2023-02-12T09:09:51;103823.28;;;7.69;100.00
54042;BME280;41156;51.508;5.406;2023-02-12T09:12:51;103824.03;;;7.71;100.00
54042;BME280;41156;51.508;5.406;2023-02-12T09:15:51;103819.88;;;7.78;100.00
54042;BME280;41156;51.508;5.406;2023-02-12T09:18:52;103825.00;;;7.82;100.00
54042;BME280;41156;51.508;5.406;2023-02-12T09:21:53;103830.16;;;7.85;100.00
54042;BME280;41156;51.508;5.406;2023-02-12T09:24:53;103825.25;;;7.90;100.00
54042;BME280;41156;51.508;5.406;2023-02-12T09:27:54;103838.47;;;7.93;100.00
54042;BME280;41156;51.508;5.406;2023-02-12T09:30:54;103830.16;;;7.96;100.00
54042;BME280;41156;51.508;5.406;2023-02-12T09:33:58;103835.38;;;7.97;100.00
54042;BME280;41156;51.508;5.406;2023-02-12T09:36:59;103829.88;;;7.99;100.00
54042;BME280;41156;51.508;5.406;2023-02-12T09:39:59;103833.19;;;8.03;100.00
54042;BME280;41156;51.508;5.406;2023-02-12T09:43:15;103840.88;;;8.07;100.00
54042;BME280;41156;51.508;5.406;2023-02-12T09:46:29;103832.56;;;8.10;100.00
54042;BME280;41156;51.508;5.406;2023-02-12T09:49:44;103834.03;;;8.14;100.00
54042;BME280;41156;51.508;5.406;2023-02-12T09:52:48;103831.22;;;8.16;100.00
54042;BME280;41156;51.508;5.406;2023-02-12T09:55:48;103837.09;;;8.21;100.00
54042;BME280;41156;51.508;5.406;2023-02-12T09:58:56;103838.41;;;8.27;100.00
54042;BME280;41156;51.508;5.406;2023-02-12T10:01:58;103838.28;;;8.28;100.00
54042;BME280;41156;51.508;5.406;2023-02-12T10:04:58;103832.88;;;8.28;100.00
54042;BME280;41156;51.508;5.406;2023-02-12T10:11:35;103845.13;;;8.32;100.00
54042;BME280;41156;51.508;5.406;2023-02-12T10:14:49;103851.38;;;8.33;100.00
54042;BME280;41156;51.508;5.406;2023-02-12T10:18:15;103849.53;;;8.33;100.00
54042;BME280;41156;51.508;5.406;2023-02-12T10:21:29;103848.56;;;8.34;100.00
54042;BME280;41156;51.508;5.406;2023-02-12T10:24:43;103851.97;;;8.37;100.00
54042;BME280;41156;51.508;5.406;2023-02-12T10:27:50;103848.03;;;8.41;100.00
54042;BME280;41156;51.508;5.406;2023-02-12T10:30:55;103852.38;;;8.43;100.00
54042;BME280;41156;51.508;5.406;2023-02-12T10:33:57;103846.00;;;8.44;100.00
54042;BME280;41156;51.508;5.406;2023-02-12T10:37:02;103835.22;;;8.44;100.00
54042;BME280;41156;51.508;5.406;2023-02-12T10:40:16;103833.97;;;8.48;100.00
54042;BME280;41156;51.508;5.406;2023-02-12T10:43:17;103837.25;;;8.52;100.00
54042;BME280;41156;51.508;5.406;2023-02-12T10:46:17;103845.94;;;8.56;100.00
54042;BME280;41156;51.508;5.406;2023-02-12T10:49:19;103843.84;;;8.59;100.00
54042;BME280;41156;51.508;5.406;2023-02-12T10:52:32;103836.38;;;8.63;100.00
54042;BME280;41156;51.508;5.406;2023-02-12T10:55:35;103838.66;;;8.67;100.00
54042;BME280;41156;51.508;5.406;2023-02-12T10:58:39;103839.28;;;8.71;100.00
54042;BME280;41156;51.508;5.406;2023-02-12T11:01:46;103839.00;;;8.74;100.00
54042;BME280;41156;51.508;5.406;2023-02-12T11:04:47;103831.66;;;8.76;100.00
54042;BME280;41156;51.508;5.406;2023-02-12T11:07:50;103829.69;;;8.78;100.00
54042;BME280;41156;51.508;5.406;2023-02-12T11:10:51;103834.69;;;8.83;100.00
54042;BME280;41156;51.508;5.406;2023-02-12T11:13:59;103830.59;;;8.88;100.00
54042;BME280;41156;51.508;5.406;2023-02-12T11:17:00;103834.63;;;8.94;100.00
54042;BME280;41156;51.508;5.406;2023-02-12T11:23:37;103827.34;;;9.06;100.00
54042;BME280;41156;51.508;5.406;2023-02-12T11:26:37;103822.41;;;9.11;100.00
54042;BME280;41156;51.508;5.406;2023-02-12T11:29:38;103822.88;;;9.16;100.00
54042;BME280;41156;51.508;5.406;2023-02-12T11:32:39;103829.69;;;9.20;100.00
54042;BME280;41156;51.508;5.406;2023-02-12T11:35:52;103825.75;;;9.24;99.35
54042;BME280;41156;51.508;5.406;2023-02-12T11:38:54;103818.25;;;9.28;100.00
54042;BME280;41156;51.508;5.406;2023-02-12T11:41:59;103818.38;;;9.26;100.00
54042;BME280;41156;51.508;5.406;2023-02-12T11:45:01;103817.22;;;9.29;100.00
54042;BME280;41156;51.508;5.406;2023-02-12T11:48:12;103808.88;;;9.32;100.00
54042;BME280;41156;51.508;5.406;2023-02-12T11:51:25;103807.91;;;9.33;100.00
54042;BME280;41156;51.508;5.406;2023-02-12T11:54:31;103805.91;;;9.35;100.00
54042;BME280;41156;51.508;5.406;2023-02-12T11:57:47;103809.47;;;9.36;100.00
54042;BME280;41156;51.508;5.406;2023-02-12T12:01:01;103803.94;;;9.37;100.00
54042;BME280;41156;51.508;5.406;2023-02-12T12:04:09;103803.78;;;9.39;99.92
54042;BME280;41156;51.508;5.406;2023-02-12T12:07:17;103800.13;;;9.40;100.00
54042;BME280;41156;51.508;5.406;2023-02-12T12:10:30;103792.88;;;9.40;100.00
54042;BME280;41156;51.508;5.406;2023-02-12T12:13:38;103796.84;;;9.36;100.00
54042;BME280;41156;51.508;5.406;2023-02-12T12:16:52;103794.28;;;9.35;100.00
54042;BME280;41156;51.508;5.406;2023-02-12T12:20:20;103791.72;;;9.33;100.00
54042;BME280;41156;51.508;5.406;2023-02-12T12:23:30;103787.41;;;9.31;99.61
54042;BME280;41156;51.508;5.406;2023-02-12T12:26:34;103782.03;;;9.31;100.00
54042;BME280;41156;51.508;5.406;2023-02-12T12:29:51;103787.72;;;9.28;98.60
54042;BME280;41156;51.508;5.406;2023-02-12T12:32:56;103786.72;;;9.29;100.00
54042;BME280;41156;51.508;5.406;2023-02-12T12:39:25;103783.88;;;9.30;99.28
54042;BME280;41156;51.508;5.406;2023-02-12T12:43:10;103780.34;;;9.30;98.74
54042;BME280;41156;51.508;5.406;2023-02-12T12:52:44;103770.91;;;9.24;100.00
54042;BME280;41156;51.508;5.406;2023-02-12T13:06:28;103744.84;;;9.34;97.32
54042;BME280;41156;51.508;5.406;2023-02-12T13:19:39;103742.88;;;9.36;100.00
54042;BME280;41156;51.508;5.406;2023-02-12T13:23:10;103736.75;;;9.34;100.00
54042;BME280;41156;51.508;5.406;2023-02-12T13:32:44;103730.63;;;9.32;99.74
54042;BME280;41156;51.508;5.406;2023-02-12T13:35:51;103726.38;;;9.30;100.00
54042;BME280;41156;51.508;5.406;2023-02-12T13:42:12;103724.38;;;9.32;98.28
54042;BME280;41156;51.508;5.406;2023-02-12T13:52:13;103727.22;;;9.30;99.52
54042;BME280;41156;51.508;5.406;2023-02-12T13:55:34;103725.34;;;9.31;97.15
54042;BME280;41156;51.508;5.406;2023-02-12T13:58:38;103718.25;;;9.30;100.00
54042;BME280;41156;51.508;5.406;2023-02-12T14:01:41;103711.41;;;9.25;99.56
54042;BME280;41156;51.508;5.406;2023-02-12T14:04:45;103707.88;;;9.25;99.97
54042;BME280;41156;51.508;5.406;2023-02-12T14:07:51;103711.56;;;9.24;99.81
54042;BME280;41156;51.508;5.406;2023-02-12T14:11:04;103705.56;;;9.20;97.98
54042;BME280;41156;51.508;5.406;2023-02-12T14:14:06;103707.28;;;9.21;100.00
54042;BME280;41156;51.508;5.406;2023-02-12T14:20:33;103708.00;;;9.23;99.02
54042;BME280;41156;51.508;5.406;2023-02-12T14:23:34;103707.88;;;9.25;100.00
54042;BME280;41156;51.508;5.406;2023-02-12T14:26:36;103709.84;;;9.23;100.00
54042;BME280;41156;51.508;5.406;2023-02-12T14:29:37;103703.88;;;9.19;100.00
54042;BME280;41156;51.508;5.406;2023-02-12T14:35:45;103701.31;;;9.18;100.00
54042;BME280;41156;51.508;5.406;2023-02-12T14:42:40;103700.44;;;9.17;99.76
54042;BME280;41156;51.508;5.406;2023-02-12T14:45:33;103703.41;;;9.14;98.54
54042;BME280;41156;51.508;5.406;2023-02-12T14:48:58;103695.31;;;9.14;99.92
54042;BME280;41156;51.508;5.406;2023-02-12T14:55:21;103692.47;;;9.06;99.19
54042;BME280;41156;51.508;5.406;2023-02-12T14:58:24;103689.91;;;9.04;100.00
54042;BME280;41156;51.508;5.406;2023-02-12T15:01:30;103689.78;;;9.06;99.26
54042;BME280;41156;51.508;5.406;2023-02-12T15:04:36;103691.59;;;9.05;99.54
54042;BME280;41156;51.508;5.406;2023-02-12T15:07:45;103692.47;;;9.06;98.37
54042;BME280;41156;51.508;5.406;2023-02-12T15:11:11;103692.72;;;9.03;98.36
54042;BME280;41156;51.508;5.406;2023-02-12T15:14:33;103685.34;;;9.05;99.13
54042;BME280;41156;51.508;5.406;2023-02-12T15:17:38;103683.63;;;9.04;100.00
54042;BME280;41156;51.508;5.406;2023-02-12T15:20:49;103681.19;;;9.01;99.39
54042;BME280;41156;51.508;5.406;2023-02-12T15:26:59;103681.38;;;8.99;100.00
54042;BME280;41156;51.508;5.406;2023-02-12T15:30:00;103677.09;;;8.97;100.00
54042;BME280;41156;51.508;5.406;2023-02-12T15:33:03;103672.66;;;8.96;100.00
54042;BME280;41156;51.508;5.406;2023-02-12T15:36:07;103671.25;;;8.92;99.35
54042;BME280;41156;51.508;5.406;2023-02-12T15:39:08;103681.31;;;8.89;100.00
54042;BME280;41156;51.508;5.406;2023-02-12T15:42:27;103672.47;;;8.87;98.82
54042;BME280;41156;51.508;5.406;2023-02-12T15:45:30;103668.94;;;8.87;100.00
54042;BME280;41156;51.508;5.406;2023-02-12T15:48:35;103670.22;;;8.83;100.00
54042;BME280;41156;51.508;5.406;2023-02-12T15:51:38;103660.53;;;8.80;100.00
54042;BME280;41156;51.508;5.406;2023-02-12T15:54:42;103663.22;;;8.80;100.00
54042;BME280;41156;51.508;5.406;2023-02-12T15:57:48;103658.97;;;8.78;100.00
54042;BME280;41156;51.508;5.406;2023-02-12T16:00:50;103663.63;;;8.76;100.00
54042;BME280;41156;51.508;5.406;2023-02-12T16:03:54;103668.44;;;8.72;100.00
54042;BME280;41156;51.508;5.406;2023-02-12T16:06:55;103668.81;;;8.67;100.00
54042;BME280;41156;51.508;5.406;2023-02-12T16:09:56;103675.09;;;8.68;100.00
54042;BME280;41156;51.508;5.406;2023-02-12T16:12:57;103674.22;;;8.67;100.00
54042;BME280;41156;51.508;5.406;2023-02-12T16:19:26;103670.34;;;8.60;100.00
54042;BME280;41156;51.508;5.406;2023-02-12T16:22:31;103674.03;;;8.59;100.00
54042;BME280;41156;51.508;5.406;2023-02-12T16:25:32;103672.47;;;8.57;100.00
54042;BME280;41156;51.508;5.406;2023-02-12T16:28:33;103670.75;;;8.56;100.00
54042;BME280;41156;51.508;5.406;2023-02-12T16:31:34;103671.00;;;8.52;100.00
54042;BME280;41156;51.508;5.406;2023-02-12T16:34:36;103664.91;;;8.50;100.00
54042;BME280;41156;51.508;5.406;2023-02-12T16:40:38;103666.16;;;8.46;100.00
54042;BME280;41156;51.508;5.406;2023-02-12T16:43:38;103661.88;;;8.44;100.00
54042;BME280;41156;51.508;5.406;2023-02-12T16:46:59;103666.53;;;8.42;100.00
54042;BME280;41156;51.508;5.406;2023-02-12T16:50:01;103662.22;;;8.39;100.00
54042;BME280;41156;51.508;5.406;2023-02-12T16:53:03;103670.47;;;8.38;100.00
54042;BME280;41156;51.508;5.406;2023-02-12T16:56:04;103666.19;;;8.35;100.00
54042;BME280;41156;51.508;5.406;2023-02-12T16:59:05;103660.22;;;8.31;100.00
54042;BME280;41156;51.508;5.406;2023-02-12T17:02:14;103663.28;;;8.27;100.00
54042;BME280;41156;51.508;5.406;2023-02-12T17:05:15;103668.69;;;8.27;100.00
54042;BME280;41156;51.508;5.406;2023-02-12T17:08:20;103667.97;;;8.25;100.00
54042;BME280;41156;51.508;5.406;2023-02-12T17:11:22;103669.94;;;8.23;100.00
54042;BME280;41156;51.508;5.406;2023-02-12T17:14:23;103671.75;;;8.22;100.00
54042;BME280;41156;51.508;5.406;2023-02-12T17:17:23;103672.88;;;8.20;100.00
54042;BME280;41156;51.508;5.406;2023-02-12T17:20:23;103668.59;;;8.17;100.00
54042;BME280;41156;51.508;5.406;2023-02-12T17:23:23;103672.44;;;8.14;100.00
54042;BME280;41156;51.508;5.406;2023-02-12T17:26:24;103673.41;;;8.13;100.00
54042;BME280;41156;51.508;5.406;2023-02-12T17:29:25;103668.25;;;8.10;100.00
54042;BME280;41156;51.508;5.406;2023-02-12T17:32:25;103678.31;;;8.08;100.00
54042;BME280;41156;51.508;5.406;2023-02-12T17:35:26;103682.84;;;8.08;100.00
54042;BME280;41156;51.508;5.406;2023-02-12T17:38:26;103680.41;;;8.05;100.00
54042;BME280;41156;51.508;5.406;2023-02-12T17:41:26;103683.25;;;8.03;100.00
54042;BME280;41156;51.508;5.406;2023-02-12T17:44:27;103682.53;;;8.01;100.00
54042;BME280;41156;51.508;5.406;2023-02-12T17:47:27;103682.53;;;8.01;100.00
54042;BME280;41156;51.508;5.406;2023-02-12T17:50:28;103677.38;;;7.98;100.00